Saturday, May 26, 2018, 12:10 PM GMT
Back to Local

CYUL, Montreal / Pierre Elliot Trudeau International Airport, Que

Location: , , Canada Lat: 45.467
Local Time: 12:10 PM GMT (12:10 GMT) Lon: -73.75
Time Zone: GMT Elev: 101 ft

Show me the last for .
Show Decoded

2018-05-26 11:00 METAR CYUL 261100Z 20005KT 140V210 10SM -RA FEW060 SCT090 OVC120 17/16 A2969 RMK
                 SC1AC3AC5 SC TR SLP056 DENSITY ALT 700FT =
2018-05-26 10:36 METAR CYUL 261036Z 22003KT 12SM -RA FEW025 FEW060 OVC090 17/16 A2969 RMK
                 SC1SC2AC6 SC TR SLP055 DENSITY ALT 600FT =
2018-05-26 10:18 METAR CYUL 261018Z 21008KT 210V330 5SM -TSRA FEW028CB SCT045 BKN060 OVC090 17/16
                 A2968 RMK CB1SC3SC3AC1 PRESFR SLP053 DENSITY ALT 700FT =
2018-05-26 10:06 METAR CYUL 261006Z 32008KT 2SM TSRA FEW009 BKN025CB OVC040 17/16 A2970 RMK
                 SF1CB5SC3 SF TR PRESRR SLP057 DENSITY ALT 700FT =
2018-05-26 10:04 METAR CYUL 261004Z 31009KT 2SM RA FEW012 BKN028 OVC040 17/16 A2970 RMK SF1SC6SC2
                 SF TR PRESRR SLP060 DENSITY ALT 700FT =
2018-05-26 10:00 METAR CYUL 261000Z 31009KT 15SM -RA FEW011 BKN035 OVC055 17/16 A2970 RMK
                 SF1SC5SC3 SF TR PRESRR SLP060 DENSITY ALT 700FT =
2018-05-26 09:00 METAR CYUL 260900Z 25005KT 15SM BKN080 OVC130 17/15 A2966 RMK AC6AC2 SLP046
                 DENSITY ALT 700FT =
2018-05-26 08:00 METAR CYUL 260800Z 24006KT 15SM SCT090 OVC240 17/15 A2964 RMK AC3CI5 SLP039
                 DENSITY ALT 800FT =
2018-05-26 07:00 METAR CYUL 260700Z 24005KT 15SM FEW080 OVC100 17/16 A2965 RMK AC2AC6 SLP041
                 DENSITY ALT 700FT =
2018-05-26 06:00 METAR CYUL 260600Z 21005KT 15SM FEW060 BKN080 OVC110 18/16 A2966 RMK SC1AC5AC3
                 SC TR SLP044 DENSITY ALT 900FT =
2018-05-26 05:37 METAR CYUL 260537Z 24006KT 15SM FEW025 BKN080 OVC110 18/16 A2965 RMK SC1AC5AC3
                 SC TR SLP043 DENSITY ALT 900FT =
2018-05-26 05:00 METAR CYUL 260500Z 25007KT 230V290 15SM -RA FEW025 SCT040 BKN085 OVC110 19/16
                 A2966 RMK SC1SC2AC4AC1 SLP045 DENSITY ALT 900FT =
2018-05-26 04:55 METAR CYUL 260455Z 25006KT 240V320 15SM -RA FEW023 SCT040 OVC085 19/16 A2966 RMK
                 SC2SC2AC4 SLP045 DENSITY ALT 900FT =
2018-05-26 04:00 METAR CYUL 260400Z 25009KT 15SM FEW060 SCT075 OVC110 19/16 A2967 RMK SC1AC3AC4
                 SLP047 DENSITY ALT 1000FT =
2018-05-26 03:48 METAR CYUL 260348Z 25011KT 15SM FEW060 BKN075 OVC120 19/16 A2967 RMK SC2AC3AC3
                 SLP048 DENSITY ALT 1000FT =
2018-05-26 03:00 METAR CYUL 260300Z 24012G17KT 15SM -RA SCT060 BKN078 BKN120 OVC210 19/15 A2966
                 RMK SC3AC2AC2CI1 SLP046 DENSITY ALT 900FT =
2018-05-26 02:40 METAR CYUL 260240Z 25009KT 15SM -RA FEW055 BKN110 BKN130 OVC220 18/15 A2967 RMK
                 SC1AC5AC2CI1 SC TR SLP047 DENSITY ALT 900FT =
2018-05-26 02:00 METAR CYUL 260200Z 23010G16KT 15SM SCT130 BKN150 OVC220 18/15 A2968 RMK
                 AC4AC2CI2 SLP051 DENSITY ALT 800FT =
2018-05-26 01:26 METAR CYUL 260126Z 23016G22KT 15SM BKN140 BKN250 18/15 A2968 RMK AC7CI1 CI TR
                 SLP053 DENSITY ALT 800FT =
2018-05-26 01:00 METAR CYUL 260100Z 23017KT 15SM -RA FEW090 BKN130 OVC150 18/14 A2968 RMK
                 AC1AC7AS1 AC TR SLP052 DENSITY ALT 900FT =
2018-05-26 00:00 METAR CYUL 260000Z 22017G23KT 15SM FEW045 FEW100 OVC130 20/14 A2969 RMK
                 CF1AC1AS7 CF TR AC ASOCTD SLP054 DENSITY ALT 1100FT =
2018-05-25 23:00 METAR CYUL 252300Z 24016G24KT 15SM FEW045 FEW120 OVC150 23/14 A2967 RMK
                 CU1AC1AC7 CU TR SLP047 DENSITY ALT 1400FT =
2018-05-25 22:00 METAR CYUL 252200Z 23020G27KT 15SM FEW045 OVC160 23/14 A2965 RMK CU1AC8 CU TR
                 SLP043 DENSITY ALT 1500FT =
2018-05-25 21:00 METAR CYUL 252100Z 23019G26KT 15SM FEW045 BKN190 OVC250 25/15 A2965 RMK
                 CU1AC5CI3 CU TR SLP042 DENSITY ALT 1600FT =
2018-05-25 20:00 METAR CYUL 252000Z 24018G23KT 15SM FEW040 SCT180 BKN250 26/16 A2967 RMK
                 CU1AC3CI4 CU TR SLP047 DENSITY ALT 1800FT =
2018-05-25 19:00 METAR CYUL 251900Z 23018KT 15SM FEW045 SCT180 BKN240 23/14 A2969 RMK CU1AC3CI4
                 CU TR SLP055 DENSITY ALT 1300FT =
2018-05-25 18:00 METAR CYUL 251800Z 23017G27KT 15SM FEW040 FEW100 BKN240 24/15 A2970 RMK
                 CU1AC1CI7 CU TR AC TR CC ASOTCD SLP059 DENSITY ALT 1500FT =
2018-05-25 17:00 METAR CYUL 251700Z 25023G29KT 15SM BKN100 BKN240 24/15 A2971 RMK AC5CI2 SLP063
                 DENSITY ALT 1500FT =
2018-05-25 16:00 METAR CYUL 251600Z 23021G27KT 15SM BKN095 OVC250 23/14 A2974 RMK AC7CI1 SLP073
                 DENSITY ALT 1400FT =
2018-05-25 15:00 METAR CYUL 251500Z 26018G26KT 15SM BKN100 OVC250 26/14 A2975 RMK AC7CI1 SLP074
                 DENSITY ALT 1600FT =
2018-05-25 14:00 METAR CYUL 251400Z 21014KT 30SM FEW100 OVC250 23/13 A2976 RMK AC1CI7 SLP079
                 DENSITY ALT 1300FT =
2018-05-25 13:00 METAR CYUL 251300Z 23013KT 30SM FEW090 BKN240 21/12 A2978 RMK AC1CI5 AC TR
                 SLP085 DENSITY ALT 1100FT =

Support USWX by starting your Amazon purchase here.